Main page
METAR-TAF:

METAR-TAF

Airports :

N'Djamena International Airport

N'Djamena, Chad

latitude: 12-08N, longitude: 015-02E, elevation: 295 m

Current weather observation

The report was made 46 minutes ago, at 15:00 UTC
Wind 8 kt from the North/Northwest, varying between North/Northwest and Northeast
Temperature 32°C
Humidity 6%
Pressure 1011 hPa
Visibility 10 km or more
no clouds below 1500 m and no cumulonimbus

METAR: FTTJ 231500Z 33008KT 330V050 CAVOK 32/M10 Q1011 NOSIG

Time: 16:46 (15:46 UTC)

Forecast

The report was made 4 hours and 30 minutes ago, at 11:16 UTC
Forecast valid from 23 at 12 UTC to 24 at 18 UTC
Wind 10 kt from the North
Visibility: 7000 m
Temporary
from 23 at 17 UTC to 23 at 19 UTC
Visibility: 4000 m
widespread dust
Temporary
from 24 at 17 UTC to 24 at 18 UTC
Visibility: 4000 m
widespread dust

TAF: FTTJ 231116Z 2312/2418 01010KT 7000 NSC TEMPO 2317/2319 4000 DU TEMPO 2417/2418 4000 DU

Weather observations and forecasts of more than 4000 airports (METAR and TAF reports).

The available stations are represented by yellow and red dots on the map.

Hover mouse over dot to see the name of the station.

Then click to see weather observations and forecasts.

To change the map : click on the green buttons with a black cross to zoom in, on the green button with a dash to zoom out, or on the green arrows for adjacent maps.


METAR-TAF: